Leandro N. Alem, Argentina
Current Conditions -  °F | °C
As of 6:00 AM on Saturday 20 Dec 2014 (Local Time) from SAAR Reporting Station
Broken Clouds Broken Clouds  
Wind Chill: 64°   Ceiling: 10000
Heat Index: 64°   Visibility: 6mi
Dew Point: 63°   Wind: 10mph
Humidity: 94%   Direction: 160°SSE
Pressure: 29.53"   Gusts: NA
Location:  34.5°S, 61.4°W
Report Text: SAAR 200900Z 16009KT 9999 FEW015 SCT045BKN100 18/17 Q1000 RETSRA
Loading
Personal Weather Stations






























Interactive Weather Map New forecast layout! Learn more

10-Day Weather Forecast

Advertisements
Track Severe Weather on mobile